sensor_id;sensor_type;location;lat;lon;timestamp;P1;durP1;ratioP1;P2;durP2;ratioP2
38725;SDS011;24474;48.906;8.808;2022-08-21T00:00:27;3.85;;;1.70;;
38725;SDS011;24474;48.906;8.808;2022-08-21T00:02:56;4.03;;;2.00;;
38725;SDS011;24474;48.906;8.808;2022-08-21T00:05:27;7.00;;;1.98;;
38725;SDS011;24474;48.906;8.808;2022-08-21T00:07:53;3.17;;;1.70;;
38725;SDS011;24474;48.906;8.808;2022-08-21T00:10:19;5.95;;;2.00;;
38725;SDS011;24474;48.906;8.808;2022-08-21T00:12:46;4.45;;;1.90;;
38725;SDS011;24474;48.906;8.808;2022-08-21T00:15:16;4.35;;;2.00;;
38725;SDS011;24474;48.906;8.808;2022-08-21T00:20:11;3.92;;;1.80;;
38725;SDS011;24474;48.906;8.808;2022-08-21T00:22:40;4.07;;;2.10;;
38725;SDS011;24474;48.906;8.808;2022-08-21T00:25:07;4.63;;;1.90;;
38725;SDS011;24474;48.906;8.808;2022-08-21T00:27:34;3.42;;;2.10;;
38725;SDS011;24474;48.906;8.808;2022-08-21T00:30:01;6.35;;;2.00;;
38725;SDS011;24474;48.906;8.808;2022-08-21T00:32:27;5.70;;;2.10;;
38725;SDS011;24474;48.906;8.808;2022-08-21T00:34:53;3.40;;;1.70;;
38725;SDS011;24474;48.906;8.808;2022-08-21T00:37:20;4.55;;;1.65;;
38725;SDS011;24474;48.906;8.808;2022-08-21T00:39:46;4.70;;;2.05;;
38725;SDS011;24474;48.906;8.808;2022-08-21T00:42:13;4.47;;;2.15;;
38725;SDS011;24474;48.906;8.808;2022-08-21T00:44:42;4.85;;;1.90;;
38725;SDS011;24474;48.906;8.808;2022-08-21T00:47:09;3.90;;;1.90;;
38725;SDS011;24474;48.906;8.808;2022-08-21T00:49:36;4.45;;;2.00;;
38725;SDS011;24474;48.906;8.808;2022-08-21T00:52:04;4.15;;;1.80;;
38725;SDS011;24474;48.906;8.808;2022-08-21T00:54:33;5.63;;;2.30;;
38725;SDS011;24474;48.906;8.808;2022-08-21T00:57:03;4.90;;;2.42;;
38725;SDS011;24474;48.906;8.808;2022-08-21T00:59:36;4.65;;;2.25;;
38725;SDS011;24474;48.906;8.808;2022-08-21T01:02:04;4.95;;;2.42;;
38725;SDS011;24474;48.906;8.808;2022-08-21T01:04:32;5.88;;;2.47;;
38725;SDS011;24474;48.906;8.808;2022-08-21T01:06:59;4.72;;;2.53;;
38725;SDS011;24474;48.906;8.808;2022-08-21T01:09:27;5.13;;;2.08;;
38725;SDS011;24474;48.906;8.808;2022-08-21T01:11:52;4.90;;;2.42;;
38725;SDS011;24474;48.906;8.808;2022-08-21T01:14:19;5.25;;;2.00;;
38725;SDS011;24474;48.906;8.808;2022-08-21T01:16:46;4.60;;;1.90;;
38725;SDS011;24474;48.906;8.808;2022-08-21T01:19:15;5.72;;;2.20;;
38725;SDS011;24474;48.906;8.808;2022-08-21T01:21:43;5.65;;;1.80;;
38725;SDS011;24474;48.906;8.808;2022-08-21T01:24:10;6.53;;;2.30;;
38725;SDS011;24474;48.906;8.808;2022-08-21T01:26:36;5.10;;;2.30;;
38725;SDS011;24474;48.906;8.808;2022-08-21T01:29:05;4.90;;;2.20;;
38725;SDS011;24474;48.906;8.808;2022-08-21T01:31:36;4.40;;;1.98;;
38725;SDS011;24474;48.906;8.808;2022-08-21T01:34:03;5.20;;;2.30;;
38725;SDS011;24474;48.906;8.808;2022-08-21T01:36:33;3.92;;;1.85;;
38725;SDS011;24474;48.906;8.808;2022-08-21T01:38:59;4.88;;;2.30;;
38725;SDS011;24474;48.906;8.808;2022-08-21T01:41:25;3.60;;;2.05;;
38725;SDS011;24474;48.906;8.808;2022-08-21T01:43:52;4.07;;;2.20;;
38725;SDS011;24474;48.906;8.808;2022-08-21T01:46:18;4.65;;;2.00;;
38725;SDS011;24474;48.906;8.808;2022-08-21T01:48:43;3.47;;;1.90;;
38725;SDS011;24474;48.906;8.808;2022-08-21T01:51:10;5.90;;;1.90;;
38725;SDS011;24474;48.906;8.808;2022-08-21T01:53:36;5.35;;;2.10;;
38725;SDS011;24474;48.906;8.808;2022-08-21T01:56:04;3.97;;;2.00;;
38725;SDS011;24474;48.906;8.808;2022-08-21T01:58:31;4.65;;;1.90;;
38725;SDS011;24474;48.906;8.808;2022-08-21T02:01:00;6.22;;;2.10;;
38725;SDS011;24474;48.906;8.808;2022-08-21T02:03:28;5.25;;;2.45;;
38725;SDS011;24474;48.906;8.808;2022-08-21T02:05:55;4.65;;;1.88;;
38725;SDS011;24474;48.906;8.808;2022-08-21T02:08:21;6.22;;;2.75;;
38725;SDS011;24474;48.906;8.808;2022-08-21T02:10:48;3.85;;;1.90;;
38725;SDS011;24474;48.906;8.808;2022-08-21T02:13:17;4.40;;;2.00;;
38725;SDS011;24474;48.906;8.808;2022-08-21T02:15:43;4.28;;;2.10;;
38725;SDS011;24474;48.906;8.808;2022-08-21T02:18:10;5.90;;;2.33;;
38725;SDS011;24474;48.906;8.808;2022-08-21T02:20:38;4.20;;;2.10;;
38725;SDS011;24474;48.906;8.808;2022-08-21T02:23:08;6.33;;;2.10;;
38725;SDS011;24474;48.906;8.808;2022-08-21T02:25:35;5.07;;;2.00;;
38725;SDS011;24474;48.906;8.808;2022-08-21T02:28:04;5.32;;;2.15;;
38725;SDS011;24474;48.906;8.808;2022-08-21T02:30:33;6.65;;;2.20;;
38725;SDS011;24474;48.906;8.808;2022-08-21T02:33:06;4.15;;;2.00;;
38725;SDS011;24474;48.906;8.808;2022-08-21T02:35:35;3.95;;;1.98;;
38725;SDS011;24474;48.906;8.808;2022-08-21T02:38:06;5.10;;;2.20;;
38725;SDS011;24474;48.906;8.808;2022-08-21T02:40:35;4.93;;;2.08;;
38725;SDS011;24474;48.906;8.808;2022-08-21T02:43:05;5.07;;;2.30;;
38725;SDS011;24474;48.906;8.808;2022-08-21T02:45:33;5.40;;;2.35;;
38725;SDS011;24474;48.906;8.808;2022-08-21T02:48:10;4.70;;;2.05;;
38725;SDS011;24474;48.906;8.808;2022-08-21T02:50:43;4.28;;;2.00;;
38725;SDS011;24474;48.906;8.808;2022-08-21T02:53:15;6.05;;;2.15;;
38725;SDS011;24474;48.906;8.808;2022-08-21T02:55:44;4.95;;;2.33;;
38725;SDS011;24474;48.906;8.808;2022-08-21T02:58:11;4.28;;;2.05;;
38725;SDS011;24474;48.906;8.808;2022-08-21T03:00:39;4.63;;;2.10;;
38725;SDS011;24474;48.906;8.808;2022-08-21T03:03:04;4.95;;;2.40;;
38725;SDS011;24474;48.906;8.808;2022-08-21T03:05:32;6.30;;;2.53;;
38725;SDS011;24474;48.906;8.808;2022-08-21T03:08:00;7.05;;;2.38;;
38725;SDS011;24474;48.906;8.808;2022-08-21T03:10:28;5.32;;;2.33;;
38725;SDS011;24474;48.906;8.808;2022-08-21T03:12:57;5.13;;;2.10;;
38725;SDS011;24474;48.906;8.808;2022-08-21T03:15:24;4.95;;;2.30;;
38725;SDS011;24474;48.906;8.808;2022-08-21T03:17:51;4.20;;;2.20;;
38725;SDS011;24474;48.906;8.808;2022-08-21T03:20:19;7.00;;;2.20;;
38725;SDS011;24474;48.906;8.808;2022-08-21T03:22:47;3.70;;;2.00;;
38725;SDS011;24474;48.906;8.808;2022-08-21T03:25:13;6.80;;;1.92;;
38725;SDS011;24474;48.906;8.808;2022-08-21T03:27:39;5.85;;;2.28;;
38725;SDS011;24474;48.906;8.808;2022-08-21T03:30:06;5.53;;;2.00;;
38725;SDS011;24474;48.906;8.808;2022-08-21T03:32:33;4.10;;;2.20;;
38725;SDS011;24474;48.906;8.808;2022-08-21T03:35:00;5.55;;;2.08;;
38725;SDS011;24474;48.906;8.808;2022-08-21T03:37:28;4.25;;;2.10;;
38725;SDS011;24474;48.906;8.808;2022-08-21T03:39:54;5.03;;;2.05;;
38725;SDS011;24474;48.906;8.808;2022-08-21T03:42:22;5.20;;;2.25;;
38725;SDS011;24474;48.906;8.808;2022-08-21T03:44:48;3.20;;;1.88;;
38725;SDS011;24474;48.906;8.808;2022-08-21T03:47:14;4.78;;;2.20;;
38725;SDS011;24474;48.906;8.808;2022-08-21T03:49:41;4.53;;;2.35;;
38725;SDS011;24474;48.906;8.808;2022-08-21T03:52:06;5.85;;;2.60;;
38725;SDS011;24474;48.906;8.808;2022-08-21T03:54:33;5.07;;;2.20;;
38725;SDS011;24474;48.906;8.808;2022-08-21T03:56:59;3.28;;;1.98;;
38725;SDS011;24474;48.906;8.808;2022-08-21T03:59:27;5.00;;;2.65;;
38725;SDS011;24474;48.906;8.808;2022-08-21T04:01:54;4.95;;;2.58;;
38725;SDS011;24474;48.906;8.808;2022-08-21T04:04:22;8.02;;;2.63;;
38725;SDS011;24474;48.906;8.808;2022-08-21T04:06:48;8.43;;;2.55;;
38725;SDS011;24474;48.906;8.808;2022-08-21T04:09:14;4.80;;;2.35;;
38725;SDS011;24474;48.906;8.808;2022-08-21T04:11:42;3.97;;;2.20;;
38725;SDS011;24474;48.906;8.808;2022-08-21T04:14:08;4.20;;;2.08;;
38725;SDS011;24474;48.906;8.808;2022-08-21T04:16:35;5.32;;;2.55;;
38725;SDS011;24474;48.906;8.808;2022-08-21T04:19:01;4.05;;;2.40;;
38725;SDS011;24474;48.906;8.808;2022-08-21T04:21:26;6.50;;;2.28;;
38725;SDS011;24474;48.906;8.808;2022-08-21T04:23:54;5.50;;;2.55;;
38725;SDS011;24474;48.906;8.808;2022-08-21T04:26:21;5.63;;;2.42;;
38725;SDS011;24474;48.906;8.808;2022-08-21T04:28:47;6.60;;;2.40;;
38725;SDS011;24474;48.906;8.808;2022-08-21T04:31:16;4.18;;;2.30;;
38725;SDS011;24474;48.906;8.808;2022-08-21T04:33:43;5.32;;;2.40;;
38725;SDS011;24474;48.906;8.808;2022-08-21T04:36:09;5.75;;;2.53;;
38725;SDS011;24474;48.906;8.808;2022-08-21T04:38:36;4.93;;;2.60;;
38725;SDS011;24474;48.906;8.808;2022-08-21T04:41:03;5.97;;;2.63;;
38725;SDS011;24474;48.906;8.808;2022-08-21T04:43:30;4.70;;;2.30;;
38725;SDS011;24474;48.906;8.808;2022-08-21T04:45:56;6.75;;;2.65;;
38725;SDS011;24474;48.906;8.808;2022-08-21T04:48:26;5.38;;;2.83;;
38725;SDS011;24474;48.906;8.808;2022-08-21T04:56:34;5.97;;;2.63;;
38725;SDS011;24474;48.906;8.808;2022-08-21T04:59:04;4.57;;;2.60;;
38725;SDS011;24474;48.906;8.808;2022-08-21T05:01:35;6.25;;;2.85;;
38725;SDS011;24474;48.906;8.808;2022-08-21T05:04:04;5.65;;;2.70;;
38725;SDS011;24474;48.906;8.808;2022-08-21T05:06:33;4.80;;;2.83;;
38725;SDS011;24474;48.906;8.808;2022-08-21T05:09:02;4.95;;;2.67;;
38725;SDS011;24474;48.906;8.808;2022-08-21T05:11:30;5.43;;;2.80;;
38725;SDS011;24474;48.906;8.808;2022-08-21T05:13:57;7.15;;;2.88;;
38725;SDS011;24474;48.906;8.808;2022-08-21T05:16:23;7.82;;;2.90;;
38725;SDS011;24474;48.906;8.808;2022-08-21T05:18:49;7.05;;;2.90;;
38725;SDS011;24474;48.906;8.808;2022-08-21T05:21:15;4.90;;;2.38;;
38725;SDS011;24474;48.906;8.808;2022-08-21T05:23:42;5.07;;;2.60;;
38725;SDS011;24474;48.906;8.808;2022-08-21T05:26:08;5.03;;;2.15;;
38725;SDS011;24474;48.906;8.808;2022-08-21T05:28:35;4.63;;;2.53;;
38725;SDS011;24474;48.906;8.808;2022-08-21T05:31:00;4.45;;;2.58;;
38725;SDS011;24474;48.906;8.808;2022-08-21T05:33:26;5.60;;;2.50;;
38725;SDS011;24474;48.906;8.808;2022-08-21T05:35:52;5.43;;;2.53;;
38725;SDS011;24474;48.906;8.808;2022-08-21T05:38:23;6.07;;;2.65;;
38725;SDS011;24474;48.906;8.808;2022-08-21T05:40:49;5.32;;;2.58;;
38725;SDS011;24474;48.906;8.808;2022-08-21T05:43:16;5.55;;;2.60;;
38725;SDS011;24474;48.906;8.808;2022-08-21T05:45:43;5.63;;;2.92;;
38725;SDS011;24474;48.906;8.808;2022-08-21T05:50:42;6.47;;;3.05;;
38725;SDS011;24474;48.906;8.808;2022-08-21T05:53:10;5.22;;;3.20;;
38725;SDS011;24474;48.906;8.808;2022-08-21T05:55:36;7.03;;;3.28;;
38725;SDS011;24474;48.906;8.808;2022-08-21T05:58:04;5.88;;;3.88;;
38725;SDS011;24474;48.906;8.808;2022-08-21T06:00:30;8.10;;;5.40;;
38725;SDS011;24474;48.906;8.808;2022-08-21T06:02:58;12.52;;;7.80;;
38725;SDS011;24474;48.906;8.808;2022-08-21T06:05:23;12.68;;;8.68;;
38725;SDS011;24474;48.906;8.808;2022-08-21T06:07:49;14.93;;;9.15;;
38725;SDS011;24474;48.906;8.808;2022-08-21T06:10:17;13.07;;;8.85;;
38725;SDS011;24474;48.906;8.808;2022-08-21T06:12:44;12.80;;;8.40;;
38725;SDS011;24474;48.906;8.808;2022-08-21T06:15:09;12.27;;;8.23;;
38725;SDS011;24474;48.906;8.808;2022-08-21T06:17:36;15.48;;;7.60;;
38725;SDS011;24474;48.906;8.808;2022-08-21T06:20:03;10.25;;;6.30;;
38725;SDS011;24474;48.906;8.808;2022-08-21T06:22:30;10.35;;;6.32;;
38725;SDS011;24474;48.906;8.808;2022-08-21T06:24:58;9.50;;;6.13;;
38725;SDS011;24474;48.906;8.808;2022-08-21T06:27:23;9.63;;;5.22;;
38725;SDS011;24474;48.906;8.808;2022-08-21T06:29:49;8.23;;;4.90;;
38725;SDS011;24474;48.906;8.808;2022-08-21T06:32:16;8.25;;;5.50;;
38725;SDS011;24474;48.906;8.808;2022-08-21T06:34:43;8.30;;;5.28;;
38725;SDS011;24474;48.906;8.808;2022-08-21T06:37:09;7.80;;;4.97;;
38725;SDS011;24474;48.906;8.808;2022-08-21T06:39:35;8.13;;;4.50;;
38725;SDS011;24474;48.906;8.808;2022-08-21T06:42:02;7.57;;;4.72;;
38725;SDS011;24474;48.906;8.808;2022-08-21T06:44:39;7.57;;;4.18;;
38725;SDS011;24474;48.906;8.808;2022-08-21T06:47:06;7.53;;;3.80;;
38725;SDS011;24474;48.906;8.808;2022-08-21T06:49:31;7.10;;;3.83;;
38725;SDS011;24474;48.906;8.808;2022-08-21T06:51:58;6.43;;;3.28;;
38725;SDS011;24474;48.906;8.808;2022-08-21T06:54:23;6.80;;;3.53;;
38725;SDS011;24474;48.906;8.808;2022-08-21T06:56:50;6.32;;;3.78;;
38725;SDS011;24474;48.906;8.808;2022-08-21T06:59:16;10.25;;;3.40;;
38725;SDS011;24474;48.906;8.808;2022-08-21T07:01:43;8.13;;;3.20;;
38725;SDS011;24474;48.906;8.808;2022-08-21T07:04:10;6.28;;;2.83;;
38725;SDS011;24474;48.906;8.808;2022-08-21T07:06:37;6.20;;;2.75;;
38725;SDS011;24474;48.906;8.808;2022-08-21T07:09:04;6.32;;;2.92;;
38725;SDS011;24474;48.906;8.808;2022-08-21T07:11:30;6.90;;;2.85;;
38725;SDS011;24474;48.906;8.808;2022-08-21T07:13:55;7.72;;;2.85;;
38725;SDS011;24474;48.906;8.808;2022-08-21T07:16:21;7.45;;;3.10;;
38725;SDS011;24474;48.906;8.808;2022-08-21T07:18:49;9.02;;;3.10;;
38725;SDS011;24474;48.906;8.808;2022-08-21T07:21:14;7.63;;;2.70;;
38725;SDS011;24474;48.906;8.808;2022-08-21T07:23:44;8.38;;;3.00;;
38725;SDS011;24474;48.906;8.808;2022-08-21T07:26:17;8.95;;;3.22;;
38725;SDS011;24474;48.906;8.808;2022-08-21T07:28:49;8.40;;;3.30;;
38725;SDS011;24474;48.906;8.808;2022-08-21T07:31:21;7.65;;;3.05;;
38725;SDS011;24474;48.906;8.808;2022-08-21T07:33:49;8.25;;;2.85;;
38725;SDS011;24474;48.906;8.808;2022-08-21T07:36:16;9.98;;;3.28;;
38725;SDS011;24474;48.906;8.808;2022-08-21T07:38:43;8.00;;;3.63;;
38725;SDS011;24474;48.906;8.808;2022-08-21T07:41:20;7.28;;;3.20;;
38725;SDS011;24474;48.906;8.808;2022-08-21T07:43:48;10.05;;;3.70;;
38725;SDS011;24474;48.906;8.808;2022-08-21T07:46:13;8.63;;;3.45;;
38725;SDS011;24474;48.906;8.808;2022-08-21T07:48:39;13.52;;;3.38;;
38725;SDS011;24474;48.906;8.808;2022-08-21T07:51:08;8.20;;;3.40;;
38725;SDS011;24474;48.906;8.808;2022-08-21T07:53:36;9.55;;;3.40;;
38725;SDS011;24474;48.906;8.808;2022-08-21T07:56:04;9.35;;;3.22;;
38725;SDS011;24474;48.906;8.808;2022-08-21T07:58:31;8.63;;;3.38;;
38725;SDS011;24474;48.906;8.808;2022-08-21T08:00:58;7.60;;;3.20;;
38725;SDS011;24474;48.906;8.808;2022-08-21T08:03:25;6.90;;;3.13;;
38725;SDS011;24474;48.906;8.808;2022-08-21T08:05:52;8.88;;;3.38;;
38725;SDS011;24474;48.906;8.808;2022-08-21T08:08:20;11.05;;;3.22;;
38725;SDS011;24474;48.906;8.808;2022-08-21T08:10:45;8.90;;;3.28;;
38725;SDS011;24474;48.906;8.808;2022-08-21T08:13:12;8.02;;;3.50;;
38725;SDS011;24474;48.906;8.808;2022-08-21T08:15:38;8.45;;;3.17;;
38725;SDS011;24474;48.906;8.808;2022-08-21T08:18:03;7.00;;;3.50;;
38725;SDS011;24474;48.906;8.808;2022-08-21T08:20:29;8.30;;;3.67;;
38725;SDS011;24474;48.906;8.808;2022-08-21T08:22:55;7.65;;;3.47;;
38725;SDS011;24474;48.906;8.808;2022-08-21T08:25:22;6.28;;;3.03;;
38725;SDS011;24474;48.906;8.808;2022-08-21T08:27:50;7.38;;;3.13;;
38725;SDS011;24474;48.906;8.808;2022-08-21T08:30:16;7.90;;;3.70;;
38725;SDS011;24474;48.906;8.808;2022-08-21T08:32:46;8.00;;;3.25;;
38725;SDS011;24474;48.906;8.808;2022-08-21T08:35:12;7.72;;;3.30;;
38725;SDS011;24474;48.906;8.808;2022-08-21T08:37:43;7.25;;;3.17;;
38725;SDS011;24474;48.906;8.808;2022-08-21T08:40:32;7.45;;;3.10;;
38725;SDS011;24474;48.906;8.808;2022-08-21T08:43:09;7.80;;;3.58;;
38725;SDS011;24474;48.906;8.808;2022-08-21T08:45:36;8.60;;;3.42;;
38725;SDS011;24474;48.906;8.808;2022-08-21T08:48:08;7.15;;;3.00;;
38725;SDS011;24474;48.906;8.808;2022-08-21T08:50:45;8.38;;;3.38;;
38725;SDS011;24474;48.906;8.808;2022-08-21T08:53:23;9.68;;;3.30;;
38725;SDS011;24474;48.906;8.808;2022-08-21T08:56:03;7.40;;;3.22;;
38725;SDS011;24474;48.906;8.808;2022-08-21T08:58:36;6.50;;;2.88;;
38725;SDS011;24474;48.906;8.808;2022-08-21T09:01:05;7.38;;;3.03;;
38725;SDS011;24474;48.906;8.808;2022-08-21T09:03:40;9.88;;;3.60;;
38725;SDS011;24474;48.906;8.808;2022-08-21T09:20:47;6.78;;;3.17;;
38725;SDS011;24474;48.906;8.808;2022-08-21T09:26:21;10.20;;;3.50;;
38725;SDS011;24474;48.906;8.808;2022-08-21T09:29:15;8.02;;;3.35;;
38725;SDS011;24474;48.906;8.808;2022-08-21T09:31:45;7.00;;;3.20;;
38725;SDS011;24474;48.906;8.808;2022-08-21T09:34:11;7.90;;;3.28;;
38725;SDS011;24474;48.906;8.808;2022-08-21T09:36:47;7.55;;;2.90;;
38725;SDS011;24474;48.906;8.808;2022-08-21T09:39:37;8.63;;;2.60;;
38725;SDS011;24474;48.906;8.808;2022-08-21T09:42:06;6.05;;;2.72;;
38725;SDS011;24474;48.906;8.808;2022-08-21T09:44:36;8.18;;;3.13;;
38725;SDS011;24474;48.906;8.808;2022-08-21T09:47:06;7.63;;;3.08;;
38725;SDS011;24474;48.906;8.808;2022-08-21T09:49:34;6.85;;;2.92;;
38725;SDS011;24474;48.906;8.808;2022-08-21T09:52:02;7.07;;;3.20;;
38725;SDS011;24474;48.906;8.808;2022-08-21T09:54:32;8.07;;;3.00;;
38725;SDS011;24474;48.906;8.808;2022-08-21T09:59:52;9.00;;;3.08;;
38725;SDS011;24474;48.906;8.808;2022-08-21T10:04:51;9.07;;;3.08;;
38725;SDS011;24474;48.906;8.808;2022-08-21T10:07:22;8.18;;;2.63;;
38725;SDS011;24474;48.906;8.808;2022-08-21T10:10:08;5.85;;;2.63;;
38725;SDS011;24474;48.906;8.808;2022-08-21T10:21:24;8.43;;;3.05;;
38725;SDS011;24474;48.906;8.808;2022-08-21T10:24:06;7.70;;;2.78;;
38725;SDS011;24474;48.906;8.808;2022-08-21T10:38:37;7.72;;;2.90;;
38725;SDS011;24474;48.906;8.808;2022-08-21T10:47:18;6.03;;;2.55;;
38725;SDS011;24474;48.906;8.808;2022-08-21T10:55:33;6.18;;;2.90;;
38725;SDS011;24474;48.906;8.808;2022-08-21T10:58:19;7.93;;;3.15;;
38725;SDS011;24474;48.906;8.808;2022-08-21T11:01:17;8.43;;;2.83;;
38725;SDS011;24474;48.906;8.808;2022-08-21T11:06:44;7.10;;;2.60;;
38725;SDS011;24474;48.906;8.808;2022-08-21T11:09:19;8.98;;;2.67;;
38725;SDS011;24474;48.906;8.808;2022-08-21T11:14:30;7.05;;;2.65;;
38725;SDS011;24474;48.906;8.808;2022-08-21T11:17:07;4.88;;;2.50;;
38725;SDS011;24474;48.906;8.808;2022-08-21T11:22:38;7.25;;;2.30;;
38725;SDS011;24474;48.906;8.808;2022-08-21T11:25:34;7.05;;;2.50;;
38725;SDS011;24474;48.906;8.808;2022-08-21T11:30:42;7.18;;;2.75;;
38725;SDS011;24474;48.906;8.808;2022-08-21T11:33:47;5.70;;;2.58;;
38725;SDS011;24474;48.906;8.808;2022-08-21T11:39:41;5.60;;;2.55;;
38725;SDS011;24474;48.906;8.808;2022-08-21T11:51:28;5.28;;;2.67;;
38725;SDS011;24474;48.906;8.808;2022-08-21T11:55:00;7.25;;;2.38;;
38725;SDS011;24474;48.906;8.808;2022-08-21T11:59:57;5.90;;;2.20;;
38725;SDS011;24474;48.906;8.808;2022-08-21T12:02:28;5.20;;;2.35;;
38725;SDS011;24474;48.906;8.808;2022-08-21T12:05:03;4.10;;;2.50;;
38725;SDS011;24474;48.906;8.808;2022-08-21T12:07:40;6.25;;;2.80;;
38725;SDS011;24474;48.906;8.808;2022-08-21T12:10:12;4.35;;;2.20;;
38725;SDS011;24474;48.906;8.808;2022-08-21T12:12:43;9.05;;;2.75;;
38725;SDS011;24474;48.906;8.808;2022-08-21T12:18:23;5.78;;;2.30;;
38725;SDS011;24474;48.906;8.808;2022-08-21T12:21:03;4.97;;;2.17;;
38725;SDS011;24474;48.906;8.808;2022-08-21T12:31:58;6.18;;;2.55;;
38725;SDS011;24474;48.906;8.808;2022-08-21T12:34:32;9.60;;;2.90;;
38725;SDS011;24474;48.906;8.808;2022-08-21T12:37:12;5.97;;;2.70;;
38725;SDS011;24474;48.906;8.808;2022-08-21T12:39:51;5.68;;;2.47;;
38725;SDS011;24474;48.906;8.808;2022-08-21T12:42:24;5.07;;;2.33;;
38725;SDS011;24474;48.906;8.808;2022-08-21T12:48:15;5.38;;;2.58;;
38725;SDS011;24474;48.906;8.808;2022-08-21T12:53:52;7.88;;;2.75;;
38725;SDS011;24474;48.906;8.808;2022-08-21T12:56:23;5.93;;;2.80;;
38725;SDS011;24474;48.906;8.808;2022-08-21T12:58:54;5.43;;;2.60;;
38725;SDS011;24474;48.906;8.808;2022-08-21T13:01:46;8.10;;;3.08;;
38725;SDS011;24474;48.906;8.808;2022-08-21T13:04:19;7.38;;;2.67;;
38725;SDS011;24474;48.906;8.808;2022-08-21T13:07:00;7.03;;;2.38;;
38725;SDS011;24474;48.906;8.808;2022-08-21T13:09:28;7.70;;;2.63;;
38725;SDS011;24474;48.906;8.808;2022-08-21T13:11:55;6.15;;;2.75;;
38725;SDS011;24474;48.906;8.808;2022-08-21T13:14:37;5.47;;;2.45;;
38725;SDS011;24474;48.906;8.808;2022-08-21T13:17:05;6.78;;;2.53;;
38725;SDS011;24474;48.906;8.808;2022-08-21T13:19:33;6.47;;;2.40;;
38725;SDS011;24474;48.906;8.808;2022-08-21T13:22:00;7.78;;;2.70;;
38725;SDS011;24474;48.906;8.808;2022-08-21T13:24:31;5.35;;;2.30;;
38725;SDS011;24474;48.906;8.808;2022-08-21T13:27:02;9.95;;;2.97;;
38725;SDS011;24474;48.906;8.808;2022-08-21T13:29:44;6.53;;;2.40;;
38725;SDS011;24474;48.906;8.808;2022-08-21T13:32:13;6.82;;;3.58;;
38725;SDS011;24474;48.906;8.808;2022-08-21T13:34:49;6.43;;;2.55;;
38725;SDS011;24474;48.906;8.808;2022-08-21T13:37:16;5.28;;;2.45;;
38725;SDS011;24474;48.906;8.808;2022-08-21T13:39:47;5.57;;;2.40;;
38725;SDS011;24474;48.906;8.808;2022-08-21T13:42:17;6.03;;;2.60;;
38725;SDS011;24474;48.906;8.808;2022-08-21T13:44:44;6.13;;;2.30;;
38725;SDS011;24474;48.906;8.808;2022-08-21T13:47:14;4.65;;;2.20;;
38725;SDS011;24474;48.906;8.808;2022-08-21T13:49:43;7.28;;;2.20;;
38725;SDS011;24474;48.906;8.808;2022-08-21T13:52:20;5.53;;;2.25;;
38725;SDS011;24474;48.906;8.808;2022-08-21T13:57:35;6.55;;;2.15;;
38725;SDS011;24474;48.906;8.808;2022-08-21T14:00:13;5.97;;;2.30;;
38725;SDS011;24474;48.906;8.808;2022-08-21T14:02:54;7.43;;;2.13;;
38725;SDS011;24474;48.906;8.808;2022-08-21T14:05:35;5.13;;;2.40;;
38725;SDS011;24474;48.906;8.808;2022-08-21T14:08:12;6.22;;;2.08;;
38725;SDS011;24474;48.906;8.808;2022-08-21T14:10:47;4.47;;;2.20;;
38725;SDS011;24474;48.906;8.808;2022-08-21T14:13:38;3.70;;;1.90;;
38725;SDS011;24474;48.906;8.808;2022-08-21T14:16:24;7.03;;;2.33;;
38725;SDS011;24474;48.906;8.808;2022-08-21T14:21:40;5.95;;;2.40;;
38725;SDS011;24474;48.906;8.808;2022-08-21T14:24:29;7.32;;;2.22;;
38725;SDS011;24474;48.906;8.808;2022-08-21T14:27:03;4.88;;;2.05;;
38725;SDS011;24474;48.906;8.808;2022-08-21T14:29:36;7.10;;;2.50;;
38725;SDS011;24474;48.906;8.808;2022-08-21T14:32:23;6.93;;;2.70;;
38725;SDS011;24474;48.906;8.808;2022-08-21T14:34:55;8.73;;;2.22;;
38725;SDS011;24474;48.906;8.808;2022-08-21T14:37:24;4.78;;;2.22;;
38725;SDS011;24474;48.906;8.808;2022-08-21T14:39:52;3.33;;;1.73;;
38725;SDS011;24474;48.906;8.808;2022-08-21T14:42:18;6.18;;;2.50;;
38725;SDS011;24474;48.906;8.808;2022-08-21T14:44:44;5.32;;;2.40;;
38725;SDS011;24474;48.906;8.808;2022-08-21T14:47:13;5.97;;;2.42;;
38725;SDS011;24474;48.906;8.808;2022-08-21T14:49:38;5.72;;;2.30;;
38725;SDS011;24474;48.906;8.808;2022-08-21T14:52:04;5.20;;;2.40;;
38725;SDS011;24474;48.906;8.808;2022-08-21T14:54:30;6.65;;;2.42;;
38725;SDS011;24474;48.906;8.808;2022-08-21T14:57:06;9.52;;;2.40;;
38725;SDS011;24474;48.906;8.808;2022-08-21T14:59:37;4.55;;;2.10;;
38725;SDS011;24474;48.906;8.808;2022-08-21T15:02:04;4.15;;;2.10;;
38725;SDS011;24474;48.906;8.808;2022-08-21T15:04:35;5.68;;;1.90;;
38725;SDS011;24474;48.906;8.808;2022-08-21T15:07:02;3.95;;;1.95;;
38725;SDS011;24474;48.906;8.808;2022-08-21T15:09:28;5.35;;;2.10;;
38725;SDS011;24474;48.906;8.808;2022-08-21T15:11:55;7.75;;;2.40;;
38725;SDS011;24474;48.906;8.808;2022-08-21T15:14:24;4.88;;;2.20;;
38725;SDS011;24474;48.906;8.808;2022-08-21T15:16:53;4.43;;;2.33;;
38725;SDS011;24474;48.906;8.808;2022-08-21T15:19:19;6.13;;;2.35;;
38725;SDS011;24474;48.906;8.808;2022-08-21T15:21:45;5.20;;;2.20;;
38725;SDS011;24474;48.906;8.808;2022-08-21T15:24:12;5.20;;;2.20;;
38725;SDS011;24474;48.906;8.808;2022-08-21T15:26:39;8.18;;;2.60;;
38725;SDS011;24474;48.906;8.808;2022-08-21T15:29:05;6.18;;;2.35;;
38725;SDS011;24474;48.906;8.808;2022-08-21T15:31:34;5.65;;;2.15;;
38725;SDS011;24474;48.906;8.808;2022-08-21T15:34:14;4.72;;;2.10;;
38725;SDS011;24474;48.906;8.808;2022-08-21T15:36:41;4.18;;;2.00;;
38725;SDS011;24474;48.906;8.808;2022-08-21T15:39:07;5.22;;;2.30;;
38725;SDS011;24474;48.906;8.808;2022-08-21T15:41:33;5.32;;;2.53;;
38725;SDS011;24474;48.906;8.808;2022-08-21T15:43:59;6.35;;;2.25;;
38725;SDS011;24474;48.906;8.808;2022-08-21T15:46:25;4.95;;;1.92;;
38725;SDS011;24474;48.906;8.808;2022-08-21T15:48:53;5.25;;;2.17;;
38725;SDS011;24474;48.906;8.808;2022-08-21T15:51:19;6.47;;;2.20;;
38725;SDS011;24474;48.906;8.808;2022-08-21T15:53:45;4.15;;;2.00;;
38725;SDS011;24474;48.906;8.808;2022-08-21T15:56:22;3.92;;;2.30;;
38725;SDS011;24474;48.906;8.808;2022-08-21T15:59:12;4.57;;;2.20;;
38725;SDS011;24474;48.906;8.808;2022-08-21T16:01:41;4.80;;;2.13;;
38725;SDS011;24474;48.906;8.808;2022-08-21T16:04:08;11.48;;;2.55;;
38725;SDS011;24474;48.906;8.808;2022-08-21T16:06:36;4.43;;;2.20;;
38725;SDS011;24474;48.906;8.808;2022-08-21T16:09:04;5.22;;;2.33;;
38725;SDS011;24474;48.906;8.808;2022-08-21T16:11:30;4.93;;;2.30;;
38725;SDS011;24474;48.906;8.808;2022-08-21T16:13:56;5.50;;;2.13;;
38725;SDS011;24474;48.906;8.808;2022-08-21T16:16:23;5.72;;;2.15;;
38725;SDS011;24474;48.906;8.808;2022-08-21T16:18:51;6.25;;;2.10;;
38725;SDS011;24474;48.906;8.808;2022-08-21T16:21:19;4.43;;;2.20;;
38725;SDS011;24474;48.906;8.808;2022-08-21T16:23:46;4.93;;;2.10;;
38725;SDS011;24474;48.906;8.808;2022-08-21T16:26:13;3.83;;;1.90;;
38725;SDS011;24474;48.906;8.808;2022-08-21T16:28:42;6.38;;;2.25;;
38725;SDS011;24474;48.906;8.808;2022-08-21T16:31:11;6.88;;;2.40;;
38725;SDS011;24474;48.906;8.808;2022-08-21T16:33:43;6.20;;;2.08;;
38725;SDS011;24474;48.906;8.808;2022-08-21T16:36:14;4.85;;;2.00;;
38725;SDS011;24474;48.906;8.808;2022-08-21T16:38:41;5.85;;;2.10;;
38725;SDS011;24474;48.906;8.808;2022-08-21T16:41:09;3.65;;;2.08;;
38725;SDS011;24474;48.906;8.808;2022-08-21T16:43:39;4.32;;;2.22;;
38725;SDS011;24474;48.906;8.808;2022-08-21T16:46:15;5.15;;;2.30;;
38725;SDS011;24474;48.906;8.808;2022-08-21T16:48:55;4.15;;;1.95;;
38725;SDS011;24474;48.906;8.808;2022-08-21T16:51:22;4.47;;;2.20;;
38725;SDS011;24474;48.906;8.808;2022-08-21T16:53:56;6.68;;;2.47;;
38725;SDS011;24474;48.906;8.808;2022-08-21T16:56:25;3.03;;;1.90;;
38725;SDS011;24474;48.906;8.808;2022-08-21T16:58:52;5.13;;;1.90;;